Time;durP1;ratioP1;P1;durP2;ratioP2;P2;SDS_P1;SDS_P2;PMS_P1;PMS_P2;Temp;Humidity;BMP_temperature;BMP_pressure;BME280_temperature;BME280_humidity;BME280_pressure;Samples;Min_cycle;Max_cycle;Signal;HPM_P1;HPM_P2
2022/03/30 00:01:03;;;;;;;43.40;20.75;;;;;;;;;;5035661;28;20048;-90
2022/03/30 00:03:28;;;;;;;44.15;21.02;;;;;;;;;;5034521;28;20022;-83
2022/03/30 00:05:53;;;;;;;41.85;20.40;;;;;;;;;;5035149;28;20194;-89
2022/03/30 00:08:19;;;;;;;43.75;20.65;;;;;;;;;;5035542;28;20097;-90
2022/03/30 00:10:44;;;;;;;43.03;21.08;;;;;;;;;;5035458;28;20098;-90
2022/03/30 00:13:09;;;;;;;42.45;19.67;;;;;;;;;;5035497;28;20029;-90
2022/03/30 00:15:34;;;;;;;40.78;20.10;;;;;;;;;;5033955;28;20017;-90
2022/03/30 00:17:59;;;;;;;38.58;19.40;;;;;;;;;;5035262;28;20030;-90
2022/03/30 00:20:25;;;;;;;41.08;19.17;;;;;;;;;;5034137;28;20021;-90
2022/03/30 00:22:50;;;;;;;36.33;17.92;;;;;;;;;;5035100;28;20049;-90
2022/03/30 00:25:15;;;;;;;40.35;19.20;;;;;;;;;;5034832;28;20021;-89
2022/03/30 00:27:46;;;;;;;37.50;18.23;;;;;;;;;;5035147;28;20108;-90
2022/03/30 00:30:12;;;;;;;37.22;17.15;;;;;;;;;;5034630;28;20033;-88
2022/03/30 00:32:37;;;;;;;34.13;16.83;;;;;;;;;;5033685;28;20128;-86
2022/03/30 00:35:02;;;;;;;32.30;16.38;;;;;;;;;;5034795;28;20032;-83
2022/03/30 00:37:27;;;;;;;30.42;15.80;;;;;;;;;;5034749;28;20088;-87
2022/03/30 00:39:53;;;;;;;35.15;16.05;;;;;;;;;;5034039;28;20104;-90
2022/03/30 00:42:23;;;;;;;35.85;15.73;;;;;;;;;;5033363;28;20064;-83
2022/03/30 00:44:48;;;;;;;33.25;16.35;;;;;;;;;;5034797;28;20065;-91
2022/03/30 00:47:15;;;;;;;33.55;15.73;;;;;;;;;;5035107;28;20053;-90
2022/03/30 00:49:40;;;;;;;32.90;15.95;;;;;;;;;;5033191;28;20115;-86
2022/03/30 00:52:05;;;;;;;38.47;18.15;;;;;;;;;;5034820;28;20473;-86
2022/03/30 00:54:30;;;;;;;34.50;15.90;;;;;;;;;;5034614;28;20026;-84
2022/03/30 00:56:56;;;;;;;37.25;17.98;;;;;;;;;;5034911;28;20021;-89
2022/03/30 00:59:21;;;;;;;36.45;16.55;;;;;;;;;;5034307;28;20028;-83
2022/03/30 01:01:46;;;;;;;33.67;17.05;;;;;;;;;;5034296;28;20088;-84
2022/03/30 01:04:11;;;;;;;36.72;18.20;;;;;;;;;;5033215;28;20061;-90
2022/03/30 01:06:36;;;;;;;37.47;17.95;;;;;;;;;;5034275;28;20053;-91
2022/03/30 01:09:02;;;;;;;39.17;17.45;;;;;;;;;;5033992;28;20021;-90
2022/03/30 01:11:28;;;;;;;34.08;16.77;;;;;;;;;;5034444;28;20009;-89
2022/03/30 01:13:53;;;;;;;35.03;16.10;;;;;;;;;;5034363;28;20021;-91
2022/03/30 01:16:20;;;;;;;35.75;17.30;;;;;;;;;;5034011;28;20062;-90
2022/03/30 01:18:46;;;;;;;34.88;16.27;;;;;;;;;;5034326;28;20060;-91
2022/03/30 01:21:11;;;;;;;34.35;16.83;;;;;;;;;;5034270;28;20041;-83
2022/03/30 01:23:36;;;;;;;35.42;16.95;;;;;;;;;;5034267;28;20029;-91
2022/03/30 01:26:05;;;;;;;38.05;16.70;;;;;;;;;;5033953;28;20045;-90
2022/03/30 01:28:31;;;;;;;38.63;17.80;;;;;;;;;;5034214;28;20470;-89
2022/03/30 01:33:48;;;;;;;33.80;17.50;;;;;;;;;;5010858;28;20038;-90
2022/03/30 01:36:17;;;;;;;35.35;17.40;;;;;;;;;;5033689;28;20021;-91
2022/03/30 01:38:43;;;;;;;33.50;16.33;;;;;;;;;;5032086;28;20108;-88
2022/03/30 01:41:08;;;;;;;40.42;15.80;;;;;;;;;;5033749;28;20017;-91
2022/03/30 01:43:33;;;;;;;33.80;16.48;;;;;;;;;;5032526;28;20547;-90
2022/03/30 01:45:58;;;;;;;36.38;16.88;;;;;;;;;;5032305;28;20057;-91
2022/03/30 01:48:24;;;;;;;37.60;17.15;;;;;;;;;;5032201;28;20491;-90
2022/03/30 01:50:49;;;;;;;34.55;16.67;;;;;;;;;;5033236;28;20075;-84
2022/03/30 01:53:15;;;;;;;35.90;17.27;;;;;;;;;;5033626;28;20030;-89
2022/03/30 01:55:40;;;;;;;33.05;16.38;;;;;;;;;;5032524;28;20082;-88
2022/03/30 01:58:05;;;;;;;38.42;17.83;;;;;;;;;;5033179;28;20028;-90
2022/03/30 02:00:31;;;;;;;33.30;17.27;;;;;;;;;;5032034;28;20037;-83
2022/03/30 02:02:56;;;;;;;36.13;17.20;;;;;;;;;;5033441;28;20014;-89
2022/03/30 02:05:21;;;;;;;36.90;16.95;;;;;;;;;;5032146;28;20220;-90
2022/03/30 02:07:47;;;;;;;35.50;18.20;;;;;;;;;;5033576;28;20072;-90
2022/03/30 02:10:12;;;;;;;35.63;16.98;;;;;;;;;;5032139;28;20041;-83
2022/03/30 02:12:38;;;;;;;36.42;17.08;;;;;;;;;;5033507;28;20021;-90
2022/03/30 02:15:03;;;;;;;41.88;17.58;;;;;;;;;;5033242;28;20022;-90
2022/03/30 02:17:29;;;;;;;41.10;17.00;;;;;;;;;;5032045;28;20025;-90
2022/03/30 02:19:55;;;;;;;38.00;17.20;;;;;;;;;;5031644;28;20036;-90
2022/03/30 02:22:22;;;;;;;37.88;17.83;;;;;;;;;;5032773;28;20113;-84
2022/03/30 02:24:47;;;;;;;42.50;19.02;;;;;;;;;;5032933;28;20033;-89
2022/03/30 02:27:12;;;;;;;38.35;17.77;;;;;;;;;;5033069;28;20022;-89
2022/03/30 02:29:38;;;;;;;38.45;18.58;;;;;;;;;;5032932;28;20152;-90
2022/03/30 02:32:03;;;;;;;42.22;20.35;;;;;;;;;;5031978;28;20044;-84
2022/03/30 02:34:29;;;;;;;37.70;18.67;;;;;;;;;;5032196;28;20044;-90
2022/03/30 02:36:54;;;;;;;37.85;17.48;;;;;;;;;;5033228;28;20370;-90
2022/03/30 02:39:19;;;;;;;37.10;17.13;;;;;;;;;;5033320;28;20118;-90
2022/03/30 02:41:44;;;;;;;34.40;17.17;;;;;;;;;;5033108;28;20478;-83
2022/03/30 02:44:10;;;;;;;35.83;17.13;;;;;;;;;;5031587;28;20439;-89
2022/03/30 02:46:35;;;;;;;43.80;19.20;;;;;;;;;;5032006;28;20036;-90
2022/03/30 02:49:00;;;;;;;41.60;19.45;;;;;;;;;;5031914;28;20038;-84
2022/03/30 02:51:27;;;;;;;44.17;20.65;;;;;;;;;;5031775;28;20022;-90
2022/03/30 02:53:53;;;;;;;44.92;20.10;;;;;;;;;;5032721;28;20049;-89
2022/03/30 02:56:18;;;;;;;47.28;20.85;;;;;;;;;;5024846;28;20060;-88
2022/03/30 02:58:43;;;;;;;44.97;21.10;;;;;;;;;;5028887;28;20025;-89
2022/03/30 03:01:08;;;;;;;46.28;21.67;;;;;;;;;;5032180;28;20014;-88
2022/03/30 03:03:33;;;;;;;48.85;21.83;;;;;;;;;;5032313;28;20017;-89
2022/03/30 03:05:59;;;;;;;46.05;21.42;;;;;;;;;;5022314;28;20030;-90
2022/03/30 03:08:24;;;;;;;47.90;21.83;;;;;;;;;;5013339;28;20100;-83
2022/03/30 03:10:50;;;;;;;48.75;23.00;;;;;;;;;;5013329;28;20018;-85
2022/03/30 03:13:16;;;;;;;49.10;23.60;;;;;;;;;;5028255;28;20030;-90
2022/03/30 03:15:42;;;;;;;51.85;25.48;;;;;;;;;;5012166;28;20022;-88
2022/03/30 03:18:07;;;;;;;52.60;25.40;;;;;;;;;;5011784;28;20025;-90
2022/03/30 03:20:33;;;;;;;56.03;26.25;;;;;;;;;;5012806;28;20040;-83
2022/03/30 03:23:01;;;;;;;52.78;27.10;;;;;;;;;;5012612;28;20025;-84
2022/03/30 03:25:29;;;;;;;53.15;26.42;;;;;;;;;;5012621;28;20061;-90
2022/03/30 03:27:55;;;;;;;54.40;27.48;;;;;;;;;;5011336;28;20475;-89
2022/03/30 03:30:20;;;;;;;54.95;27.17;;;;;;;;;;5012519;28;20022;-85
2022/03/30 03:32:45;;;;;;;55.05;26.13;;;;;;;;;;5013399;28;20010;-85
2022/03/30 03:35:11;;;;;;;52.88;26.13;;;;;;;;;;5016139;28;20024;-86
2022/03/30 03:37:37;;;;;;;54.55;26.23;;;;;;;;;;5014892;28;20470;-90
2022/03/30 03:40:02;;;;;;;60.80;26.38;;;;;;;;;;5016794;28;20030;-84
2022/03/30 03:42:28;;;;;;;52.25;26.15;;;;;;;;;;5014911;28;20045;-90
2022/03/30 03:44:53;;;;;;;52.38;27.75;;;;;;;;;;5015952;28;20076;-89
2022/03/30 03:47:19;;;;;;;52.63;26.08;;;;;;;;;;5016109;28;20018;-89
2022/03/30 03:49:44;;;;;;;56.60;26.38;;;;;;;;;;5015400;28;20040;-89
2022/03/30 03:52:09;;;;;;;51.90;26.02;;;;;;;;;;5015943;28;20422;-90
2022/03/30 03:54:34;;;;;;;58.05;27.55;;;;;;;;;;5015700;28;20072;-89
2022/03/30 03:56:59;;;;;;;53.30;26.27;;;;;;;;;;5014112;28;20117;-89
2022/03/30 03:59:25;;;;;;;52.65;27.35;;;;;;;;;;5014718;28;20018;-84
2022/03/30 04:01:50;;;;;;;53.65;27.50;;;;;;;;;;5015834;28;20366;-89
2022/03/30 04:04:18;;;;;;;55.50;26.45;;;;;;;;;;5015824;28;20497;-89
2022/03/30 04:06:43;;;;;;;55.08;27.48;;;;;;;;;;5015006;28;20360;-83
2022/03/30 04:09:08;;;;;;;48.20;26.73;;;;;;;;;;5015443;28;20029;-89
2022/03/30 04:11:34;;;;;;;52.17;26.65;;;;;;;;;;5015529;28;20021;-89
2022/03/30 04:13:59;;;;;;;56.40;26.10;;;;;;;;;;5014638;28;20187;-90
2022/03/30 04:16:24;;;;;;;53.45;25.75;;;;;;;;;;5015966;28;20046;-89
2022/03/30 04:18:49;;;;;;;56.15;27.30;;;;;;;;;;5015207;28;20596;-87
2022/03/30 04:21:15;;;;;;;53.90;28.38;;;;;;;;;;5015615;28;20024;-90
2022/03/30 04:23:40;;;;;;;53.88;28.45;;;;;;;;;;5014292;28;20030;-90
2022/03/30 04:26:05;;;;;;;56.58;27.42;;;;;;;;;;5014795;28;20120;-89
2022/03/30 04:28:30;;;;;;;48.15;24.23;;;;;;;;;;5013893;28;20053;-89
2022/03/30 04:30:55;;;;;;;51.75;26.38;;;;;;;;;;5013749;28;20089;-89
2022/03/30 04:33:21;;;;;;;51.80;26.77;;;;;;;;;;5015057;28;20029;-90
2022/03/30 04:35:46;;;;;;;55.85;27.48;;;;;;;;;;5013844;28;20030;-90
2022/03/30 04:38:11;;;;;;;55.33;28.60;;;;;;;;;;5015380;28;20026;-86
2022/03/30 04:40:36;;;;;;;52.78;26.55;;;;;;;;;;5014850;28;20034;-87
2022/03/30 04:43:02;;;;;;;50.97;27.33;;;;;;;;;;5014850;28;20076;-82
2022/03/30 04:45:27;;;;;;;61.15;32.20;;;;;;;;;;5014687;28;20033;-89
2022/03/30 04:47:53;;;;;;;55.50;27.85;;;;;;;;;;5015142;28;20097;-89
2022/03/30 04:50:19;;;;;;;57.33;27.98;;;;;;;;;;5014656;28;20049;-89
2022/03/30 04:52:44;;;;;;;53.13;28.73;;;;;;;;;;5014888;28;20101;-88
2022/03/30 04:55:10;;;;;;;53.80;28.90;;;;;;;;;;5013448;28;20052;-88
2022/03/30 04:57:35;;;;;;;54.53;29.63;;;;;;;;;;5013603;28;20360;-87
2022/03/30 05:00:00;;;;;;;56.78;29.67;;;;;;;;;;5014747;28;20121;-87
2022/03/30 05:02:26;;;;;;;58.25;28.73;;;;;;;;;;5013831;28;20022;-89
2022/03/30 05:04:52;;;;;;;59.97;29.52;;;;;;;;;;5014599;28;20112;-87
2022/03/30 05:07:17;;;;;;;56.75;28.27;;;;;;;;;;5013390;28;20045;-88
2022/03/30 05:09:42;;;;;;;55.90;26.48;;;;;;;;;;5013081;28;20029;-88
2022/03/30 05:12:08;;;;;;;56.58;29.10;;;;;;;;;;5012722;28;20017;-88
2022/03/30 05:14:33;;;;;;;55.00;28.35;;;;;;;;;;5014839;28;20029;-88
2022/03/30 05:16:59;;;;;;;55.55;28.70;;;;;;;;;;5013247;28;20053;-84
2022/03/30 05:19:24;;;;;;;61.38;31.30;;;;;;;;;;5013111;28;20104;-88
2022/03/30 05:21:49;;;;;;;59.20;29.30;;;;;;;;;;5013063;28;20530;-89
2022/03/30 05:24:14;;;;;;;56.58;30.92;;;;;;;;;;5014138;28;20050;-88
2022/03/30 05:26:39;;;;;;;65.80;30.85;;;;;;;;;;5014444;28;20026;-88
2022/03/30 05:29:05;;;;;;;57.17;30.38;;;;;;;;;;5012966;28;20485;-88
2022/03/30 05:31:30;;;;;;;55.30;29.17;;;;;;;;;;5013913;28;20034;-89
2022/03/30 05:33:55;;;;;;;55.95;28.55;;;;;;;;;;5013936;28;20022;-88
2022/03/30 05:36:20;;;;;;;55.55;29.08;;;;;;;;;;5013010;28;20057;-88
2022/03/30 05:38:48;;;;;;;56.60;29.38;;;;;;;;;;5012657;28;20014;-88
2022/03/30 05:41:13;;;;;;;58.30;30.10;;;;;;;;;;5012998;28;20026;-90
2022/03/30 05:43:38;;;;;;;56.08;28.38;;;;;;;;;;5013873;28;20285;-89
2022/03/30 05:46:04;;;;;;;57.33;28.83;;;;;;;;;;5013833;28;20029;-89
2022/03/30 05:48:29;;;;;;;58.10;28.75;;;;;;;;;;5013878;28;20060;-89
2022/03/30 05:50:55;;;;;;;57.13;30.05;;;;;;;;;;5013925;28;20037;-89
2022/03/30 05:53:20;;;;;;;59.45;29.75;;;;;;;;;;5011868;28;20113;-83
2022/03/30 05:55:45;;;;;;;57.20;28.95;;;;;;;;;;5012270;28;20459;-88
2022/03/30 05:58:11;;;;;;;61.67;30.25;;;;;;;;;;5012191;28;20057;-84
2022/03/30 06:00:37;;;;;;;59.50;30.08;;;;;;;;;;5012744;28;20458;-89
2022/03/30 06:03:02;;;;;;;55.78;28.98;;;;;;;;;;5013418;28;20045;-88
2022/03/30 06:05:28;;;;;;;60.05;30.42;;;;;;;;;;5011857;28;20025;-89
2022/03/30 06:07:57;;;;;;;58.60;29.52;;;;;;;;;;5012193;28;20029;-88
2022/03/30 06:10:23;;;;;;;57.67;30.92;;;;;;;;;;5013241;28;20487;-89
2022/03/30 06:12:48;;;;;;;61.75;29.88;;;;;;;;;;5013641;28;20026;-87
2022/03/30 06:15:13;;;;;;;61.63;30.38;;;;;;;;;;5012256;28;20081;-90
2022/03/30 06:17:39;;;;;;;56.83;29.88;;;;;;;;;;5013305;28;20021;-82
2022/03/30 06:20:04;;;;;;;64.82;30.77;;;;;;;;;;5013476;28;20022;-88
2022/03/30 06:22:30;;;;;;;67.80;30.13;;;;;;;;;;5013108;28;20025;-87
2022/03/30 06:24:55;;;;;;;58.85;30.25;;;;;;;;;;5013339;28;20121;-88
2022/03/30 06:27:22;;;;;;;63.40;31.00;;;;;;;;;;5012070;28;20030;-86
2022/03/30 06:29:47;;;;;;;74.72;35.17;;;;;;;;;;5011875;28;20036;-88
2022/03/30 06:32:12;;;;;;;68.45;34.85;;;;;;;;;;5011856;28;20030;-89
2022/03/30 06:34:38;;;;;;;70.15;35.65;;;;;;;;;;5012264;28;20030;-83
2022/03/30 06:37:05;;;;;;;63.95;32.47;;;;;;;;;;5013422;28;20104;-88
2022/03/30 06:39:30;;;;;;;57.65;31.58;;;;;;;;;;5011754;28;20033;-88
2022/03/30 06:41:56;;;;;;;75.70;36.45;;;;;;;;;;5013049;28;20022;-88
2022/03/30 06:44:21;;;;;;;65.05;33.15;;;;;;;;;;5011945;28;20037;-86
2022/03/30 06:46:46;;;;;;;72.60;33.28;;;;;;;;;;5013479;28;20030;-88
2022/03/30 06:49:12;;;;;;;64.75;33.38;;;;;;;;;;5012917;28;20491;-88
2022/03/30 06:51:37;;;;;;;68.82;32.50;;;;;;;;;;5029361;28;20049;-88
2022/03/30 06:54:03;;;;;;;60.88;30.42;;;;;;;;;;5030300;28;20462;-89
2022/03/30 06:56:28;;;;;;;62.72;31.70;;;;;;;;;;5047475;28;20052;-89
2022/03/30 06:58:54;;;;;;;64.25;32.30;;;;;;;;;;5032059;28;20072;-89
2022/03/30 07:01:20;;;;;;;60.80;31.42;;;;;;;;;;5015190;28;20105;-88
2022/03/30 07:03:45;;;;;;;67.32;31.23;;;;;;;;;;5014737;28;20025;-88
2022/03/30 07:06:10;;;;;;;60.03;30.48;;;;;;;;;;5031824;28;20041;-88
2022/03/30 07:11:19;;;;;;;63.45;32.35;;;;;;;;;;5036980;28;20584;-84
2022/03/30 07:13:45;;;;;;;62.70;31.38;;;;;;;;;;5035306;28;20029;-86
2022/03/30 07:16:10;;;;;;;63.90;31.48;;;;;;;;;;5035507;28;20466;-88
2022/03/30 07:18:35;;;;;;;54.40;27.85;;;;;;;;;;5036408;28;20024;-81
2022/03/30 07:21:00;;;;;;;60.40;29.00;;;;;;;;;;5034928;28;20466;-89
2022/03/30 07:23:26;;;;;;;62.88;30.88;;;;;;;;;;5036090;28;20597;-88
2022/03/30 07:25:51;;;;;;;62.65;30.23;;;;;;;;;;5034961;28;20034;-88
2022/03/30 07:28:17;;;;;;;62.40;31.98;;;;;;;;;;5036470;28;20016;-91
2022/03/30 07:30:48;;;;;;;68.20;31.85;;;;;;;;;;5035287;28;20048;-84
2022/03/30 07:33:14;;;;;;;56.80;29.17;;;;;;;;;;5034992;28;20022;-89
2022/03/30 07:35:45;;;;;;;57.78;29.33;;;;;;;;;;5034990;28;20434;-90
2022/03/30 07:38:11;;;;;;;60.40;29.30;;;;;;;;;;5036409;28;20466;-87
2022/03/30 07:40:36;;;;;;;55.42;27.10;;;;;;;;;;5034894;28;20071;-89
2022/03/30 07:43:01;;;;;;;59.70;28.63;;;;;;;;;;5035023;28;20026;-85
2022/03/30 07:45:27;;;;;;;55.00;27.58;;;;;;;;;;5034491;28;20029;-89
2022/03/30 07:47:52;;;;;;;52.92;26.48;;;;;;;;;;5034843;28;20033;-89
2022/03/30 07:50:18;;;;;;;56.50;28.15;;;;;;;;;;5035493;28;20036;-85
2022/03/30 07:52:43;;;;;;;60.03;28.33;;;;;;;;;;5035990;28;20048;-83
2022/03/30 07:55:09;;;;;;;69.30;31.23;;;;;;;;;;5035510;28;20100;-88
2022/03/30 07:57:36;;;;;;;56.97;27.73;;;;;;;;;;5034525;28;20018;-89
2022/03/30 08:00:03;;;;;;;55.70;26.92;;;;;;;;;;5034656;28;20025;-89
2022/03/30 08:02:29;;;;;;;56.75;27.27;;;;;;;;;;5034361;28;20025;-89
2022/03/30 08:04:54;;;;;;;56.40;27.30;;;;;;;;;;5035750;28;20113;-89
2022/03/30 08:07:21;;;;;;;57.13;28.38;;;;;;;;;;5034510;28;20362;-90
2022/03/30 08:09:46;;;;;;;55.28;29.30;;;;;;;;;;5035411;28;20022;-89
2022/03/30 08:12:12;;;;;;;56.42;27.45;;;;;;;;;;5035452;28;20020;-83
2022/03/30 08:14:38;;;;;;;55.10;26.52;;;;;;;;;;5034945;28;20402;-82
2022/03/30 08:17:03;;;;;;;50.88;26.23;;;;;;;;;;5033911;28;20029;-83
2022/03/30 08:19:28;;;;;;;53.95;27.23;;;;;;;;;;5033038;28;20021;-87
2022/03/30 08:24:39;;;;;;;58.33;27.48;;;;;;;;;;5035226;28;20036;-83
2022/03/30 08:27:04;;;;;;;57.10;27.35;;;;;;;;;;5033967;28;20026;-91
2022/03/30 08:29:30;;;;;;;55.85;27.77;;;;;;;;;;5034767;28;20021;-90
2022/03/30 08:31:55;;;;;;;55.88;28.83;;;;;;;;;;5034693;28;20488;-91
2022/03/30 08:34:20;;;;;;;52.95;26.80;;;;;;;;;;5033753;28;20037;-90
2022/03/30 08:36:45;;;;;;;51.72;25.92;;;;;;;;;;5033879;28;20485;-91
2022/03/30 08:39:11;;;;;;;50.97;24.85;;;;;;;;;;5033228;28;20021;-91
2022/03/30 08:41:46;;;;;;;52.58;27.25;;;;;;;;;;5034407;28;20017;-84
2022/03/30 08:44:16;;;;;;;51.17;25.33;;;;;;;;;;5032500;28;20082;-86
2022/03/30 08:46:42;;;;;;;48.40;24.85;;;;;;;;;;5034384;28;20055;-88
2022/03/30 08:49:07;;;;;;;51.22;25.27;;;;;;;;;;5031064;28;20060;-87
2022/03/30 08:51:36;;;;;;;44.38;22.77;;;;;;;;;;5025689;28;20482;-88
2022/03/30 08:54:01;;;;;;;46.08;23.40;;;;;;;;;;5033894;28;20522;-83
2022/03/30 08:56:28;;;;;;;46.35;23.83;;;;;;;;;;5018106;28;20168;-85
2022/03/30 08:59:12;;;;;;;44.83;22.23;;;;;;;;;;5015950;28;20067;-91
2022/03/30 09:01:39;;;;;;;45.88;24.83;;;;;;;;;;5035251;28;20017;-90
2022/03/30 09:04:06;;;;;;;41.17;22.65;;;;;;;;;;5034141;28;20020;-85
2022/03/30 09:06:36;;;;;;;44.38;21.42;;;;;;;;;;5033552;28;20033;-91
2022/03/30 09:09:02;;;;;;;49.25;22.10;;;;;;;;;;5032741;28;20084;-90
2022/03/30 09:11:29;;;;;;;42.40;22.20;;;;;;;;;;5033978;28;20446;-89
2022/03/30 09:14:04;;;;;;;43.63;22.02;;;;;;;;;;5034197;28;20500;-83
2022/03/30 09:16:39;;;;;;;39.78;21.35;;;;;;;;;;5032998;28;20439;-91
2022/03/30 09:19:05;;;;;;;44.70;21.88;;;;;;;;;;5033938;28;20025;-86
2022/03/30 09:21:59;;;;;;;40.47;20.20;;;;;;;;;;5032803;28;20056;-91
2022/03/30 09:24:26;;;;;;;36.17;18.75;;;;;;;;;;5025027;28;20068;-91
2022/03/30 09:26:52;;;;;;;42.88;19.65;;;;;;;;;;5033950;28;20026;-90
2022/03/30 09:29:19;;;;;;;40.80;20.88;;;;;;;;;;5032844;28;20434;-90
2022/03/30 09:31:44;;;;;;;36.70;18.83;;;;;;;;;;5033843;28;20425;-90
2022/03/30 09:34:10;;;;;;;38.05;19.20;;;;;;;;;;5033784;28;20025;-90
2022/03/30 09:36:36;;;;;;;40.30;19.83;;;;;;;;;;5033332;28;20401;-89
2022/03/30 09:39:03;;;;;;;39.15;20.58;;;;;;;;;;5032152;28;20044;-84
2022/03/30 09:41:44;;;;;;;36.05;19.02;;;;;;;;;;5033476;28;20017;-89
2022/03/30 09:44:09;;;;;;;40.90;19.77;;;;;;;;;;5033644;28;20033;-90
2022/03/30 09:46:49;;;;;;;37.67;20.42;;;;;;;;;;5033437;28;20029;-90
2022/03/30 09:49:31;;;;;;;38.20;19.35;;;;;;;;;;5033630;28;20470;-90
2022/03/30 09:51:56;;;;;;;38.75;19.50;;;;;;;;;;5032424;28;20026;-90
2022/03/30 09:54:37;;;;;;;39.22;19.80;;;;;;;;;;5033625;28;20442;-88
2022/03/30 09:57:07;;;;;;;36.53;18.23;;;;;;;;;;5033363;28;20095;-89
2022/03/30 09:59:52;;;;;;;34.47;17.95;;;;;;;;;;5032573;28;20043;-90
2022/03/30 10:02:18;;;;;;;37.13;17.88;;;;;;;;;;5033242;28;20038;-90
2022/03/30 10:04:44;;;;;;;37.47;18.67;;;;;;;;;;5033218;28;20069;-83
2022/03/30 10:07:09;;;;;;;34.58;17.23;;;;;;;;;;5033362;28;20028;-90
2022/03/30 10:09:37;;;;;;;40.88;20.00;;;;;;;;;;5032207;28;20382;-90
2022/03/30 10:12:03;;;;;;;35.92;18.13;;;;;;;;;;5033188;28;20053;-89
2022/03/30 10:14:29;;;;;;;34.22;17.65;;;;;;;;;;5032294;28;20060;-89
2022/03/30 10:16:54;;;;;;;31.83;16.33;;;;;;;;;;5032311;28;20037;-89
2022/03/30 10:19:20;;;;;;;35.63;18.52;;;;;;;;;;5032354;28;20485;-84
2022/03/30 10:21:55;;;;;;;37.75;18.20;;;;;;;;;;5032159;28;20025;-91
2022/03/30 10:24:56;;;;;;;32.75;17.85;;;;;;;;;;5033303;28;20039;-83
2022/03/30 10:27:35;;;;;;;33.15;16.27;;;;;;;;;;4995092;28;20081;-85
2022/03/30 10:30:04;;;;;;;35.38;17.35;;;;;;;;;;5030792;28;20426;-90
2022/03/30 10:32:34;;;;;;;33.13;17.13;;;;;;;;;;5033115;28;20021;-87
2022/03/30 10:35:00;;;;;;;32.65;16.65;;;;;;;;;;5032063;28;20057;-90
2022/03/30 10:37:30;;;;;;;31.25;15.30;;;;;;;;;;5033164;28;20096;-90
2022/03/30 10:40:05;;;;;;;32.88;17.08;;;;;;;;;;5031704;28;20023;-90
2022/03/30 10:42:45;;;;;;;32.13;16.85;;;;;;;;;;5034131;28;20051;-90
2022/03/30 10:45:17;;;;;;;34.95;18.25;;;;;;;;;;5035884;28;20087;-90
2022/03/30 10:48:02;;;;;;;33.97;17.02;;;;;;;;;;5036606;28;20029;-83
2022/03/30 10:50:54;;;;;;;33.95;16.38;;;;;;;;;;5036870;28;20021;-83
2022/03/30 10:53:32;;;;;;;40.28;18.52;;;;;;;;;;5033672;28;20033;-83
2022/03/30 10:56:06;;;;;;;35.78;18.48;;;;;;;;;;5035619;28;20029;-90
2022/03/30 10:58:32;;;;;;;32.45;16.02;;;;;;;;;;5037315;28;20052;-84
2022/03/30 11:01:14;;;;;;;29.20;14.70;;;;;;;;;;5035605;28;20485;-84
2022/03/30 11:03:57;;;;;;;31.33;15.32;;;;;;;;;;5036895;28;20056;-88
2022/03/30 11:06:22;;;;;;;29.92;15.55;;;;;;;;;;5036678;28;20044;-89
2022/03/30 11:08:55;;;;;;;30.90;16.38;;;;;;;;;;5036397;28;20013;-90
2022/03/30 11:11:34;;;;;;;33.05;16.13;;;;;;;;;;5036548;28;20025;-90
2022/03/30 11:14:18;;;;;;;32.22;15.27;;;;;;;;;;5036510;28;20025;-89
2022/03/30 11:16:48;;;;;;;29.33;15.43;;;;;;;;;;5029001;28;20018;-85
2022/03/30 11:19:13;;;;;;;30.88;16.13;;;;;;;;;;5030751;28;20029;-85
2022/03/30 11:21:39;;;;;;;27.73;13.68;;;;;;;;;;5031199;28;20088;-85
2022/03/30 11:24:07;;;;;;;30.17;13.80;;;;;;;;;;5033538;28;20025;-85
2022/03/30 11:26:47;;;;;;;29.83;14.57;;;;;;;;;;5033212;28;20064;-86
2022/03/30 11:29:31;;;;;;;28.03;14.93;;;;;;;;;;5045831;28;20021;-85
2022/03/30 11:31:57;;;;;;;29.25;14.27;;;;;;;;;;5048928;28;20282;-85
2022/03/30 11:34:32;;;;;;;33.50;14.60;;;;;;;;;;5035681;28;20108;-85
2022/03/30 11:36:58;;;;;;;30.15;14.85;;;;;;;;;;5036172;28;20033;-85
2022/03/30 11:39:28;;;;;;;32.35;16.15;;;;;;;;;;5045095;28;20022;-85
2022/03/30 11:41:54;;;;;;;33.73;15.20;;;;;;;;;;5014742;28;20022;-85
2022/03/30 11:47:05;;;;;;;31.92;16.58;;;;;;;;;;5023409;28;20028;-85
2022/03/30 11:49:30;;;;;;;33.47;18.10;;;;;;;;;;5033656;28;20009;-85
2022/03/30 11:51:55;;;;;;;32.83;16.42;;;;;;;;;;5034173;28;20029;-86
2022/03/30 11:54:21;;;;;;;32.08;15.50;;;;;;;;;;5032204;28;20025;-89
2022/03/30 11:56:50;;;;;;;35.08;16.40;;;;;;;;;;5034636;28;20096;-88
2022/03/30 11:59:17;;;;;;;32.45;15.20;;;;;;;;;;5050824;28;20119;-88
2022/03/30 12:01:44;;;;;;;28.85;15.43;;;;;;;;;;5033299;28;20389;-83
2022/03/30 12:04:09;;;;;;;31.20;16.33;;;;;;;;;;5034366;28;20025;-90
2022/03/30 12:06:34;;;;;;;30.42;16.25;;;;;;;;;;5045774;28;20025;-89
2022/03/30 12:08:59;;;;;;;32.45;16.90;;;;;;;;;;5013390;28;20450;-90
2022/03/30 12:11:25;;;;;;;32.47;16.30;;;;;;;;;;5030578;28;20469;-83
2022/03/30 12:13:51;;;;;;;36.22;18.27;;;;;;;;;;5030178;28;20367;-89
2022/03/30 12:16:17;;;;;;;33.75;18.33;;;;;;;;;;5029980;28;20466;-84
2022/03/30 12:18:44;;;;;;;32.65;18.38;;;;;;;;;;5033607;28;20095;-84
2022/03/30 12:21:11;;;;;;;33.55;18.02;;;;;;;;;;5034063;28;20029;-83
2022/03/30 12:23:36;;;;;;;36.05;18.85;;;;;;;;;;5029297;28;20029;-83
2022/03/30 12:26:12;;;;;;;33.53;17.30;;;;;;;;;;5014414;28;20037;-87
2022/03/30 12:28:38;;;;;;;35.15;16.20;;;;;;;;;;5013008;28;20024;-88
2022/03/30 12:31:03;;;;;;;36.53;18.33;;;;;;;;;;5013045;28;20104;-87
2022/03/30 12:33:29;;;;;;;37.65;18.15;;;;;;;;;;5028620;28;20022;-88
2022/03/30 12:35:54;;;;;;;32.03;17.85;;;;;;;;;;5029012;28;20109;-89
2022/03/30 12:38:21;;;;;;;33.65;16.92;;;;;;;;;;5028931;28;20021;-89
2022/03/30 12:40:48;;;;;;;37.53;20.70;;;;;;;;;;5013034;28;20444;-83
2022/03/30 12:43:13;;;;;;;33.30;17.33;;;;;;;;;;5021155;28;20477;-84
2022/03/30 12:45:46;;;;;;;32.30;17.08;;;;;;;;;;5048634;28;20109;-88
2022/03/30 12:48:11;;;;;;;33.38;17.13;;;;;;;;;;5033058;28;20036;-84
2022/03/30 12:50:37;;;;;;;30.58;17.10;;;;;;;;;;5033045;28;20033;-88
2022/03/30 12:53:03;;;;;;;33.38;17.20;;;;;;;;;;5033431;28;20478;-90
2022/03/30 12:55:32;;;;;;;33.60;16.55;;;;;;;;;;5031386;28;20102;-88
2022/03/30 12:57:57;;;;;;;34.33;16.50;;;;;;;;;;5032912;28;20048;-89
2022/03/30 13:00:28;;;;;;;31.33;15.98;;;;;;;;;;5032867;28;20045;-89
2022/03/30 13:03:03;;;;;;;27.00;15.07;;;;;;;;;;5048836;28;20056;-90
2022/03/30 13:05:28;;;;;;;31.05;15.68;;;;;;;;;;5031795;28;20061;-83
2022/03/30 13:07:53;;;;;;;32.13;16.50;;;;;;;;;;5048367;28;20045;-90
2022/03/30 13:10:19;;;;;;;30.67;15.63;;;;;;;;;;5033102;28;20465;-88
2022/03/30 13:12:55;;;;;;;27.27;14.95;;;;;;;;;;5033306;28;20040;-89
2022/03/30 13:15:21;;;;;;;33.97;16.58;;;;;;;;;;5032686;28;20044;-90
2022/03/30 13:18:23;;;;;;;29.08;14.70;;;;;;;;;;5030927;28;20026;-88
2022/03/30 13:20:56;;;;;;;29.77;15.05;;;;;;;;;;5026836;28;20061;-89
2022/03/30 13:23:32;;;;;;;29.98;14.95;;;;;;;;;;5029521;28;20025;-89
2022/03/30 13:25:57;;;;;;;33.00;16.55;;;;;;;;;;5019402;28;20040;-88
2022/03/30 13:28:24;;;;;;;33.25;15.32;;;;;;;;;;5025713;28;20096;-87
2022/03/30 13:30:49;;;;;;;28.58;16.08;;;;;;;;;;5022271;28;20021;-90
2022/03/30 13:33:14;;;;;;;29.30;16.70;;;;;;;;;;5019910;28;20006;-90
2022/03/30 13:35:40;;;;;;;30.58;15.95;;;;;;;;;;5021062;28;20044;-88
2022/03/30 13:38:13;;;;;;;30.63;15.30;;;;;;;;;;5019198;28;20010;-90
2022/03/30 13:40:38;;;;;;;29.42;15.02;;;;;;;;;;5019563;28;20009;-89
2022/03/30 13:43:03;;;;;;;30.05;15.20;;;;;;;;;;5019513;28;20025;-87
2022/03/30 13:45:29;;;;;;;29.95;14.45;;;;;;;;;;5020672;28;20053;-90
2022/03/30 13:47:54;;;;;;;31.45;14.63;;;;;;;;;;5022797;28;20095;-91
2022/03/30 13:50:19;;;;;;;32.53;15.95;;;;;;;;;;5030086;28;20103;-89
2022/03/30 13:52:44;;;;;;;33.80;16.60;;;;;;;;;;5031554;28;20021;-89
2022/03/30 13:55:09;;;;;;;30.27;15.05;;;;;;;;;;5032159;28;20028;-89
2022/03/30 13:57:35;;;;;;;30.33;15.30;;;;;;;;;;5027064;28;20112;-90
2022/03/30 14:00:01;;;;;;;33.40;15.85;;;;;;;;;;5010671;28;20101;-89
2022/03/30 14:02:26;;;;;;;33.97;16.85;;;;;;;;;;5017529;28;20015;-89
2022/03/30 14:04:51;;;;;;;31.52;15.80;;;;;;;;;;5012175;28;20030;-89
2022/03/30 14:07:17;;;;;;;33.75;16.20;;;;;;;;;;5018349;28;20185;-90
2022/03/30 14:09:42;;;;;;;33.42;16.38;;;;;;;;;;5010461;28;20060;-89
2022/03/30 14:12:07;;;;;;;33.78;15.80;;;;;;;;;;5022600;28;20489;-84
2022/03/30 14:14:34;;;;;;;29.35;16.17;;;;;;;;;;5030831;28;20025;-89
2022/03/30 14:17:01;;;;;;;32.83;15.48;;;;;;;;;;5030074;28;20490;-87
2022/03/30 14:19:26;;;;;;;32.25;14.95;;;;;;;;;;5031098;28;20112;-84
2022/03/30 14:21:51;;;;;;;31.33;15.73;;;;;;;;;;5046986;28;20299;-87
2022/03/30 14:24:17;;;;;;;31.25;16.17;;;;;;;;;;5030389;28;20489;-85
2022/03/30 14:26:42;;;;;;;31.15;15.27;;;;;;;;;;5047052;28;20040;-85